Dobrodošli na spletni strani vremenske postaje Senovo. Vse informacije so informativnega značaja, saj vremenska postaja ni del državne mreže meteoroloških postaj. OBVESTILO: Letni količini padavin navedeni na spletni strani je potrebno prišteti 98,1 mm, zaradi izgube podatkov.


Dež Od: 15-12-2017 00:00 Do: 23:59 Opozorilo za: Dež Stopnja: Rumena info button
Veter Od: 15-12-2017 00:00 Do: 17:59 Opozorilo za: Veter Stopnja: Rumena info button

Pogled proti Armezu več informacij Pogled proti Armezu


Lisca več informacij Lisca


Radar strel več informacij blitzortung!


opozorilo za Dež več informacij rain snow radar


Obiščite še:

Template documentation
and downloads

And another site



Weather Underground, zgodovina - Tekstovno

Dnevni povzetek za Avgust 3, 2017 Enote:  Angleško    Metrično   Obe
« Predhodni Dan
Naslednji Dan »
Dnevni Tedenski Mesečni Letni Po meri
  Višja: Nižja: Povprečje:
Temperatura: 95.4 °F 63.9 °F 77.4 °F
Točka rosišča: 71.8 °F 61.9 °F 66.9 °F
Vlažnost: 95 % 40 % 74 %
Hitrost vetra: 3.6 mph 0 mph 1.1 mph
Sunki vetra: 6.5 mph - -
Veter:- - SW
Zračni tlak: 30.2 in 29.9 in -
Padavine: 0.05 in    
Historical Graphs
 
 
Tabelarni podarki za Avgust 3, 2017
Čas Temperatura Točka rosišča Zračni tlak Veter Hitrost vetra Sunki vetra Vlažnost Intenziteta padavin (urna)
00:00 68.4 °F 63 °F 30.2 in SSW 3.6 mph 3.6 mph 83 % 0.68 in
00:05 68.2 °F 63.1 °F 30.2 in SSW 3.6 mph 3.6 mph 84 % 0.6 in
00:10 68.2 °F 63.1 °F 30.2 in SSW 1 mph 2.5 mph 84 % 0.46 in
00:15 68 °F 63.3 °F 30.2 in Calm     85 % 0.32 in
00:20 68 °F 63.7 °F 30.2 in Calm     86 % 0.29 in
00:25 67.8 °F 63.9 °F 30.2 in Calm     87 % 0.19 in
00:30 67.8 °F 63.9 °F 30.2 in Calm   1.1 mph 87 % 0.11 in
00:35 67.8 °F 64 °F 30.2 in Calm   1.1 mph 88 % 0.08 in
00:40 67.6 °F 64 °F 30.2 in Calm     88 % 0.08 in
00:45 67.6 °F 64 °F 30.2 in Calm     88 % 0.07 in
00:55 67.6 °F 64.6 °F 30.2 in NW 1.2 mph 6.5 mph 90 % 0.07 in
01:00 67.6 °F 64.6 °F 30.2 in NW 2.6 mph 6.5 mph 90 % 0.05 in
01:05 67.6 °F 64.6 °F 30.2 in WNW 2.5 mph 6.5 mph 90 % 0.05 in
01:11 67.5 °F 64.4 °F 30.2 in West 1.1 mph 2 mph 90 % 0.04 in
01:16 67.5 °F 64.4 °F 30.2 in West 1.3 mph 2 mph 90 % 0.04 in
01:21 67.5 °F 64.4 °F 30.1 in West 1.6 mph 2 mph 90 % 0.03 in
01:26 67.3 °F 64.2 °F 30.1 in WNW 1.6 mph 1.6 mph 90 % 0.02 in
01:31 67.3 °F 64.2 °F 30.1 in WSW 2.2 mph 2.9 mph 90 % 0.01 in
01:36 67.3 °F 64.6 °F 30.2 in West 2.6 mph 2.9 mph 91 % 0.01 in
01:41 67.3 °F 64.2 °F 30.2 in WNW 2.9 mph 2.9 mph 90 % 0.01 in
01:46 67.1 °F 64.4 °F 30.2 in WNW 2.9 mph 2.9 mph 91 % 0.01 in
01:51 67.1 °F 64.4 °F 30.1 in WNW 2.9 mph 2.9 mph 91 % 0 in
01:56 67.1 °F 64.4 °F 30.1 in WNW 2.9 mph 2.9 mph 91 % 0 in
02:01 67.1 °F 64.4 °F 30.1 in WNW 2.9 mph 2.9 mph 91 % 0 in
02:06 67.1 °F 64.4 °F 30.1 in WNW 2.9 mph 2.9 mph 91 % 0 in
02:11 67.1 °F 64.4 °F 30.1 in WNW 2.9 mph 2.9 mph 91 % 0 in
02:16 67.1 °F 64.4 °F 30.1 in WNW 2.9 mph 2.9 mph 91 % 0 in
02:21 67.1 °F 64.4 °F 30.1 in WNW 2.9 mph 2.9 mph 91 % 0 in
02:26 67.1 °F 64.4 °F 30.1 in WNW 2.9 mph 2.9 mph 91 % 0 in
02:31 67.1 °F 64.4 °F 30.1 in WNW 2.9 mph 2.9 mph 91 % 0 in
02:36 66.9 °F 64.2 °F 30.1 in WNW 2.9 mph 2.9 mph 91 % 0 in
02:41 66.9 °F 64.2 °F 30.1 in WNW 2.9 mph 2.9 mph 91 % 0 in
02:46 66.7 °F 64.2 °F 30.1 in WNW 2.9 mph 2.9 mph 92 % 0 in
02:51 66.7 °F 64.2 °F 30.1 in WNW 2.9 mph 2.9 mph 92 % 0 in
02:56 66.6 °F 63.9 °F 30.1 in WNW 2.9 mph 2.9 mph 91 % 0 in
03:01 66.6 °F 63.9 °F 30.1 in WNW 2.9 mph 2.9 mph 91 % 0 in
03:06 66.4 °F 64 °F 30.1 in WNW 2.9 mph 2.9 mph 92 % 0 in
03:11 66.2 °F 63.9 °F 30.1 in WNW 2.9 mph 2.9 mph 92 % 0 in
03:16 66 °F 63.7 °F 30.1 in WNW 2.9 mph 2.9 mph 92 % 0 in
03:21 66 °F 63.7 °F 30.2 in WNW 2.9 mph 2.9 mph 92 % 0 in
03:26 65.8 °F 63.5 °F 30.2 in WNW 2.9 mph 2.9 mph 92 % 0 in
03:31 65.7 °F 63.3 °F 30.2 in WNW 2.9 mph 2.9 mph 92 % 0 in
03:36 65.7 °F 63.3 °F 30.2 in WNW 2.9 mph 2.9 mph 92 % 0 in
03:41 65.7 °F 63.7 °F 30.2 in WNW 2.9 mph 2.9 mph 93 % 0 in
03:46 65.5 °F 63.3 °F 30.2 in WNW 2.9 mph 2.9 mph 93 % 0 in
03:51 65.5 °F 63.3 °F 30.1 in WNW 2.9 mph 2.9 mph 93 % 0 in
03:56 65.5 °F 63.3 °F 30.1 in WNW 2.9 mph 2.9 mph 93 % 0 in
04:01 65.3 °F 63.1 °F 30.1 in WNW 2.9 mph 2.9 mph 93 % 0 in
04:06 65.3 °F 63.1 °F 30.1 in WNW 2.9 mph 2.9 mph 93 % 0 in
04:11 65.1 °F 63 °F 30.1 in WNW 2.9 mph 2.9 mph 93 % 0 in
04:16 64.9 °F 63 °F 30.1 in WNW 2.9 mph 2.9 mph 93 % 0 in
04:21 64.9 °F 63 °F 30.1 in Calm     93 % 0 in
04:26 64.8 °F 62.8 °F 30.1 in Calm     93 % 0 in
04:31 64.6 °F 62.4 °F 30.1 in Calm     93 % 0 in
04:36 64.4 °F 62.2 °F 30.1 in Calm     93 % 0 in
04:41 64.4 °F 62.2 °F 30.1 in Calm     93 % 0 in
04:46 64.4 °F 62.2 °F 30.1 in Calm     93 % 0 in
04:51 64.2 °F 62.2 °F 30.1 in Calm     93 % 0 in
04:56 64 °F 62.1 °F 30.1 in Calm     93 % 0 in
04:57 64 °F 62.2 °F 30.1 in Calm     94 % 0 in
05:02 64 °F 62.1 °F 30.1 in Calm     93 % 0 in
05:07 63.9 °F 61.9 °F 30.1 in Calm     93 % 0 in
05:12 63.9 °F 62.1 °F 30.1 in Calm     94 % 0 in
05:22 64 °F 62.2 °F 30.1 in Calm     94 % 0 in
05:23 64 °F 62.2 °F 30.1 in Calm     94 % 0 in
05:24 64 °F 62.2 °F 30.1 in Calm     94 % 0 in
05:25 64 °F 62.2 °F 30.1 in Calm     94 % 0 in
05:29 64 °F 62.2 °F 30.1 in Calm     94 % 0 in
05:32 64 °F 62.2 °F 30.1 in Calm     94 % 0 in
05:35 64.2 °F 62.4 °F 30.1 in Calm     94 % 0 in
05:45 64.4 °F 63 °F 30.1 in Calm     95 % 0 in
05:50 64.6 °F 63.1 °F 30.1 in Calm     95 % 0 in
05:55 64.8 °F 63.3 °F 30.1 in Calm     95 % 0 in
06:00 64.8 °F 63.3 °F 30.1 in Calm     95 % 0 in
06:05 64.8 °F 63.3 °F 30.1 in Calm     95 % 0 in
06:10 64.8 °F 63.3 °F 30.1 in Calm     95 % 0 in
06:15 64.9 °F 63.5 °F 30.1 in Calm     95 % 0 in
06:20 64.9 °F 63.5 °F 30.1 in Calm     95 % 0 in
06:26 64.9 °F 63.5 °F 30.1 in Calm     95 % 0 in
06:31 64.9 °F 63.5 °F 30.1 in Calm     95 % 0 in
06:36 65.1 °F 63.7 °F 30.1 in Calm     95 % 0 in
06:41 65.1 °F 63.7 °F 30.1 in Calm     95 % 0 in
06:46 65.1 °F 63.7 °F 30.1 in Calm     95 % 0 in
06:51 65.1 °F 63.7 °F 30.2 in Calm     95 % 0 in
06:56 65.1 °F 63.7 °F 30.2 in Calm     95 % 0 in
07:01 65.3 °F 63.9 °F 30.2 in Calm     95 % 0 in
07:06 65.3 °F 63.9 °F 30.2 in Calm     95 % 0 in
07:11 65.5 °F 64 °F 30.2 in Calm     95 % 0 in
07:16 65.5 °F 64 °F 30.2 in Calm     95 % 0 in
07:21 65.5 °F 64 °F 30.1 in Calm     95 % 0 in
07:26 65.5 °F 64 °F 30.1 in Calm     95 % 0 in
07:31 65.7 °F 64.2 °F 30.1 in Calm     95 % 0 in
07:36 65.7 °F 64.2 °F 30.1 in Calm     95 % 0 in
07:41 65.8 °F 64.4 °F 30.1 in Calm     95 % 0 in
07:46 65.8 °F 64.4 °F 30.1 in Calm     95 % 0 in
07:51 66 °F 64.6 °F 30.1 in Calm     95 % 0 in
07:56 66.4 °F 64.9 °F 30.1 in Calm     95 % 0 in
08:01 66.4 °F 64.9 °F 30.1 in Calm     95 % 0 in
08:06 66.6 °F 65.1 °F 30.2 in Calm     95 % 0 in
08:11 66.7 °F 65.3 °F 30.2 in Calm     95 % 0 in
08:16 66.9 °F 65.5 °F 30.2 in Calm     95 % 0 in
08:21 67.3 °F 65.8 °F 30.1 in Calm     95 % 0 in
08:26 67.6 °F 66.2 °F 30.1 in Calm     95 % 0 in
08:31 67.6 °F 65.8 °F 30.1 in Calm     94 % 0 in
08:36 68 °F 66.2 °F 30.1 in Calm     94 % 0 in
08:41 68.4 °F 66.6 °F 30.1 in Calm     94 % 0 in
08:47 69.3 °F 67.5 °F 30.1 in Calm     94 % 0 in
08:51 69.6 °F 67.5 °F 30.1 in Calm     93 % 0 in
08:56 70 °F 67.5 °F 30.1 in Calm     92 % 0 in
09:01 70.3 °F 67.8 °F 30.1 in Calm     92 % 0 in
09:06 70.9 °F 68.2 °F 30.1 in Calm     91 % 0 in
09:11 71.6 °F 68.7 °F 30.1 in Calm     91 % 0 in
09:17 72.3 °F 69.3 °F 30.1 in Calm     90 % 0 in
09:22 73 °F 70 °F 30.1 in Calm     90 % 0 in
09:27 73.6 °F 69.8 °F 30.1 in Calm     88 % 0 in
09:32 74.1 °F 70.3 °F 30.1 in Calm     88 % 0 in
09:37 74.7 °F 70.2 °F 30.1 in Calm     86 % 0 in
09:42 74.8 °F 70.3 °F 30.1 in Calm     86 % 0 in
09:47 75.4 °F 70.2 °F 30.1 in Calm     84 % 0 in
09:53 75.7 °F 70.2 °F 30.2 in Calm     83 % 0 in
09:58 76.3 °F 70.7 °F 30.2 in Calm     83 % 0 in
10:03 76.8 °F 70.5 °F 30.2 in Calm     81 % 0 in
10:07 77.4 °F 70.7 °F 30.1 in Calm     80 % 0 in
10:13 77.9 °F 70.5 °F 30.1 in Calm     78 % 0 in
10:18 78.1 °F 70.7 °F 30.1 in Calm     78 % 0 in
10:23 78.4 °F 70.2 °F 30.1 in Calm     76 % 0 in
10:28 79 °F 70.9 °F 30.1 in Calm   0.9 mph 76 % 0 in
10:33 79.3 °F 70.3 °F 30.1 in Calm   0.9 mph 74 % 0 in
10:38 79.9 °F 71.2 °F 30.1 in Calm     75 % 0 in
10:43 80.4 °F 71.4 °F 30.1 in Calm   0.9 mph 74 % 0 in
10:48 80.8 °F 70.9 °F 30.1 in Calm   0.9 mph 72 % 0 in
10:53 81.1 °F 71.2 °F 30.1 in SE 0.5 mph 3.6 mph 72 % 0 in
10:58 81.7 °F 71.8 °F 30.1 in SE 1.2 mph 3.8 mph 72 % 0 in
11:03 82.2 °F 71.4 °F 30.1 in ESE 1.2 mph 3.8 mph 70 % 0 in
11:08 82.4 °F 70.3 °F 30.1 in ESE 1.1 mph 3.6 mph 67 % 0 in
11:13 82.6 °F 70.9 °F 30.1 in ESE 0.9 mph 3.4 mph 68 % 0 in
11:18 82.6 °F 70.5 °F 30.1 in ESE 0.4 mph 3.4 mph 67 % 0 in
11:23 82.8 °F 70.7 °F 30.1 in SE 0.3 mph 3.4 mph 67 % 0 in
11:28 83.1 °F 70.5 °F 30.1 in SE 0.3 mph 3.4 mph 66 % 0 in
11:33 83.5 °F 70.9 °F 30.1 in South 0.3 mph 2.9 mph 66 % 0 in
11:38 83.8 °F 71.2 °F 30.1 in SSE 1 mph 3.1 mph 66 % 0 in
11:43 84.2 °F 70.2 °F 30.1 in ESE 0.8 mph 3.1 mph 63 % 0 in
11:48 84.6 °F 71.1 °F 30.1 in ESE 0.8 mph 3.4 mph 64 % 0 in
11:53 84.9 °F 70.9 °F 30.1 in SSE 0.9 mph 3.4 mph 63 % 0 in
11:58 85.5 °F 70.5 °F 30.1 in WSW 0.2 mph 2.5 mph 61 % 0 in
12:03 85.8 °F 70.9 °F 30.1 in East 0.2 mph 2.9 mph 61 % 0 in
12:08 86.2 °F 70.2 °F 30 in SE 0.4 mph 3.4 mph 59 % 0 in
12:13 86.5 °F 71.1 °F 30 in SSE 0.7 mph 4.3 mph 60 % 0 in
12:18 87.1 °F 70 °F 30 in SSE 0.9 mph 4.3 mph 57 % 0 in
12:23 87.3 °F 70.7 °F 30.1 in SSE 1.2 mph 4.3 mph 58 % 0 in
12:28 87.6 °F 70.5 °F 30.1 in SSE 1.9 mph 4.3 mph 57 % 0 in
12:33 88.2 °F 70 °F 30.1 in SSE 2.4 mph 4.3 mph 55 % 0 in
12:38 88.5 °F 69.8 °F 30.1 in SSE 2.2 mph 4.3 mph 54 % 0 in
12:39 88.5 °F 68.5 °F 30.1 in SE 1.9 mph 4.3 mph 52 % 0 in
12:44 89.1 °F 68.5 °F 30.1 in SSW 1.8 mph 5.8 mph 51 % 0 in
12:49 89.1 °F 67.5 °F 30.1 in WSW 2.3 mph 5.8 mph 49 % 0 in
12:54 89.4 °F 67.6 °F 30.1 in WSW 2.4 mph 4.3 mph 49 % 0 in
12:59 89.6 °F 67.8 °F 30.1 in SW 1.7 mph 4.3 mph 49 % 0 in
13:04 89.6 °F 66 °F 30.1 in WSW 2.4 mph 6 mph 46 % 0 in
13:09 89.6 °F 66.7 °F 30.1 in WSW 2.7 mph 6 mph 47 % 0 in
13:14 89.8 °F 66.9 °F 30.1 in SW 2.1 mph 4.7 mph 47 % 0 in
13:19 90 °F 66.9 °F 30 in WSW 1.5 mph 3.6 mph 47 % 0 in
13:24 90.5 °F 68.7 °F 30 in SW 1 mph 4.7 mph 49 % 0 in
13:29 90.7 °F 68.9 °F 30 in SW 1.9 mph 4.7 mph 49 % 0 in
13:34 90.7 °F 68.9 °F 30 in SW 2.6 mph 4.9 mph 49 % 0 in
13:39 91 °F 69.3 °F 30 in SW 2.2 mph 4.9 mph 49 % 0 in
13:44 91.4 °F 69.1 °F 30 in SW 1.7 mph 4 mph 48 % 0 in
13:49 91.4 °F 68.4 °F 30 in SW 1.4 mph 4 mph 47 % 0 in
13:54 91 °F 68.5 °F 30 in South 1.1 mph 4 mph 48 % 0 in
13:59 91.2 °F 68.7 °F 30 in SW 1.9 mph 4.3 mph 48 % 0 in
14:04 91.6 °F 68.5 °F 30 in SW 2.3 mph 4.3 mph 47 % 0 in
14:09 91.9 °F 69.4 °F 30 in SE 1.6 mph 3.8 mph 48 % 0 in
14:14 92.3 °F 69.8 °F 30 in SE 1.8 mph 4 mph 48 % 0 in
14:19 92.7 °F 69.4 °F 30 in SSE 2.3 mph 4.3 mph 47 % 0 in
14:24 92.8 °F 69.1 °F 30 in SSW 2.4 mph 4.3 mph 46 % 0 in
14:29 93 °F 68.5 °F 30 in SSW 2.4 mph 4 mph 45 % 0 in
14:30 93 °F 68.5 °F 30 in SSW 2.2 mph 4 mph 45 % 0 in
14:35 93.2 °F 68.7 °F 30 in SSE 1.9 mph 4.3 mph 45 % 0 in
14:40 93.2 °F 68.7 °F 30 in SE 1.9 mph 4.3 mph 45 % 0 in
14:45 93.2 °F 68.7 °F 30 in ESE 1.7 mph 3.1 mph 45 % 0 in
14:50 93.4 °F 69.4 °F 30 in SE 1.4 mph 3.4 mph 46 % 0 in
14:55 93.2 °F 67.5 °F 30 in SE 1.5 mph 3.8 mph 43 % 0 in
15:00 92.7 °F 67.6 °F 30 in ENE 2.1 mph 4 mph 44 % 0 in
15:05 92.5 °F 68.7 °F 30 in ENE 2.2 mph 4 mph 46 % 0 in
15:09 92.5 °F 68.7 °F 30 in ENE 1.8 mph 3.6 mph 46 % 0 in
15:14 93 °F 69.3 °F 30 in SE 2 mph 4 mph 46 % 0 in
15:19 93.2 °F 69.3 °F 30 in SSE 2.3 mph 6 mph 46 % 0 in
15:24 93.4 °F 69.4 °F 30 in SE 2.7 mph 6.5 mph 46 % 0 in
15:29 93.9 °F 70 °F 30 in SE 3.5 mph 6.5 mph 46 % 0 in
15:34 93.9 °F 69.4 °F 30 in SE 2.8 mph 6.3 mph 45 % 0 in
15:39 93.9 °F 69.4 °F 30 in ESE 1.8 mph 4.9 mph 45 % 0 in
15:44 94.1 °F 68.9 °F 30 in SSE 2.4 mph 4.9 mph 44 % 0 in
15:49 94.3 °F 69.1 °F 30 in SSE 2.5 mph 4.7 mph 44 % 0 in
15:54 94.5 °F 69.3 °F 30 in SSE 2.4 mph 4.5 mph 44 % 0 in
15:59 94.5 °F 69.3 °F 30 in SE 2.8 mph 4.5 mph 44 % 0 in
16:04 94.5 °F 69.3 °F 30 in SE 2.4 mph 4 mph 44 % 0 in
16:09 94.5 °F 69.3 °F 30 in South 1.9 mph 3.6 mph 44 % 0 in
16:14 94.6 °F 70 °F 30 in SSW 1.1 mph 3.4 mph 45 % 0 in
16:19 94.8 °F 70.2 °F 30 in SE 0.6 mph 2.5 mph 45 % 0 in
16:24 95 °F 70.3 °F 30 in SE 0.9 mph 3.4 mph 45 % 0 in
16:29 95 °F 70.3 °F 30 in SE 1.3 mph 5.4 mph 45 % 0 in
16:34 95 °F 70.3 °F 30 in SSE 1.9 mph 5.4 mph 45 % 0 in
16:39 95 °F 69.6 °F 30 in SSE 2.5 mph 5.4 mph 44 % 0 in
16:44 95.2 °F 69.8 °F 30 in SE 2.9 mph 5.4 mph 44 % 0 in
16:49 95 °F 69.1 °F 30 in SE 2.4 mph 4.3 mph 43 % 0 in
16:54 95.4 °F 70 °F 30 in ESE 1.9 mph 3.8 mph 44 % 0 in
16:59 95.4 °F 69.3 °F 30 in ESE 1.7 mph 4 mph 43 % 0 in
17:04 95.2 °F 69.3 °F 29.9 in ESE 2.1 mph 5.8 mph 43 % 0 in
17:09 95 °F 68.4 °F 29.9 in ESE 1.8 mph 5.8 mph 42 % 0 in
17:14 94.8 °F 68.2 °F 29.9 in East 1 mph 3.6 mph 42 % 0 in
17:19 94.8 °F 68.2 °F 29.9 in East 1.5 mph 3.6 mph 42 % 0 in
17:24 95 °F 68.4 °F 29.9 in SE 2.2 mph 4 mph 42 % 0 in
17:29 95 °F 68.4 °F 29.9 in South 2.4 mph 4.3 mph 42 % 0 in
17:34 94.8 °F 68.2 °F 29.9 in South 2.2 mph 4.3 mph 42 % 0 in
17:39 94.8 °F 68.2 °F 29.9 in SSE 1.8 mph 4 mph 42 % 0 in
17:44 94.8 °F 68.2 °F 29.9 in SSE 2 mph 4.3 mph 42 % 0 in
17:49 94.5 °F 67.1 °F 29.9 in South 2.2 mph 5.4 mph 41 % 0 in
17:54 94.3 °F 66.9 °F 29.9 in South 2 mph 5.4 mph 41 % 0 in
17:59 94.1 °F 66 °F 29.9 in South 1.2 mph 3.8 mph 40 % 0 in
18:04 93.7 °F 66.6 °F 29.9 in SE 0.4 mph 3.4 mph 41 % 0 in
18:05 93.6 °F 66.4 °F 29.9 in East 0.5 mph 3.4 mph 41 % 0 in
18:10 92.5 °F 66.7 °F 29.9 in NE 1.6 mph 5.4 mph 43 % 0 in
18:15 91 °F 66 °F 29.9 in NNE 2.6 mph 5.4 mph 44 % 0 in
18:20 90.1 °F 66.6 °F 29.9 in NNW 2.4 mph 3.8 mph 46 % 0 in
18:25 89.4 °F 66.6 °F 29.9 in NW 1.8 mph 2.9 mph 47 % 0 in
18:30 88.2 °F 68.4 °F 29.9 in NW 0.9 mph 2.7 mph 52 % 0 in
18:36 87.1 °F 67.8 °F 29.9 in North 0.2 mph 2.2 mph 53 % 0 in
18:41 86.4 °F 67.8 °F 29.9 in NNW 0.4 mph 2.5 mph 54 % 0 in
18:46 85.3 °F 68.4 °F 29.9 in NNW 0.9 mph 2.5 mph 57 % 0 in
18:51 84.6 °F 68.2 °F 29.9 in NNW 0.8 mph 2.9 mph 58 % 0 in
18:56 84.2 °F 68.7 °F 29.9 in NW 0.9 mph 2.9 mph 60 % 0 in
19:01 83.8 °F 69.1 °F 29.9 in NW 1.2 mph 2.5 mph 61 % 0 in
19:06 83.7 °F 68.7 °F 29.9 in NW 0.9 mph 2.9 mph 61 % 0 in
19:11 83.5 °F 68.5 °F 29.9 in NNW 1.2 mph 3.1 mph 61 % 0 in
19:16 83.3 °F 69.4 °F 29.9 in NW 1.6 mph 3.4 mph 63 % 0 in
19:21 83.1 °F 69.3 °F 29.9 in NNW 1.5 mph 3.4 mph 63 % 0 in
19:26 82.9 °F 69.4 °F 29.9 in NNW 1.3 mph 3.8 mph 64 % 0 in
19:31 82.4 °F 69.4 °F 29.9 in NNW 1.8 mph 3.8 mph 65 % 0 in
19:36 82.2 °F 69.3 °F 29.9 in NNW 1.8 mph 4.3 mph 65 % 0 in
19:41 81.9 °F 69.4 °F 29.9 in NW 1.7 mph 4.3 mph 66 % 0 in
19:46 81.5 °F 69.4 °F 29.9 in NW 1.5 mph 3.4 mph 67 % 0 in
19:51 81.1 °F 69.1 °F 29.9 in NW 1.6 mph 3.1 mph 67 % 0 in
19:56 80.8 °F 69.3 °F 29.9 in NW 2.2 mph 3.1 mph 68 % 0 in
20:01 80.2 °F 68.7 °F 29.9 in NNW 1.3 mph 2.9 mph 68 % 0 in
20:06 79.9 °F 69.3 °F 29.9 in NNW 0.8 mph 2.9 mph 70 % 0 in
20:11 79.3 °F 69.1 °F 29.9 in NNW 0.5 mph 2.5 mph 71 % 0 in
20:16 79 °F 68.7 °F 29.9 in NW 0.2 mph 2.2 mph 71 % 0 in
20:21 78.6 °F 68.7 °F 29.9 in NW 1.1 mph 3.1 mph 72 % 0 in
20:26 78.3 °F 69.3 °F 29.9 in NW 1 mph 3.1 mph 74 % 0 in
20:31 77.7 °F 68.7 °F 29.9 in NW 0.2 mph 1.3 mph 74 % 0 in
20:36 77.2 °F 68.5 °F 29.9 in Calm     75 % 0 in
20:41 77 °F 68.2 °F 29.9 in Calm     74 % 0 in
20:46 76.6 °F 68.2 °F 29.9 in NW 0.6 mph 2.5 mph 75 % 0 in
20:51 76.5 °F 68.4 °F 29.9 in NW 1 mph 2.5 mph 76 % 0 in
20:56 76.3 °F 68.5 °F 29.9 in NW 0.4 mph 2.2 mph 77 % 0 in
21:01 75.9 °F 68.2 °F 29.9 in NW 0.2 mph 2 mph 77 % 0 in
21:06 75.6 °F 67.8 °F 29.9 in NNW 0.1 mph 1.6 mph 77 % 0 in
21:11 75.4 °F 67.6 °F 29.9 in Calm     77 % 0 in
21:16 75 °F 67.6 °F 29.9 in Calm     78 % 0 in
21:21 74.8 °F 67.5 °F 29.9 in WNW 0.2 mph 2.5 mph 78 % 0 in
21:26 74.7 °F 67.6 °F 29.9 in NW 0.6 mph 2.7 mph 79 % 0 in
21:31 74.5 °F 67.5 °F 29.9 in NW 0.7 mph 2.7 mph 79 % 0 in
21:36 74.3 °F 67.5 °F 30 in Calm     79 % 0 in
21:41 74.1 °F 67.6 °F 30 in Calm     80 % 0 in
21:46 73.9 °F 67.5 °F 30 in Calm     80 % 0 in
21:51 73.9 °F 67.5 °F 30 in Calm     80 % 0 in
21:56 73.8 °F 67.6 °F 30 in Calm     81 % 0 in
22:01 73.6 °F 67.5 °F 30 in Calm     81 % 0 in
22:06 73.4 °F 67.3 °F 30 in Calm     81 % 0 in
22:11 73.2 °F 67.5 °F 30 in Calm     82 % 0 in
22:16 73 °F 67.6 °F 30 in Calm     83 % 0 in
22:21 72.9 °F 66.9 °F 30 in Calm     82 % 0 in
22:26 72.9 °F 67.5 °F 30 in Calm     83 % 0 in
22:31 72.7 °F 67.3 °F 30 in Calm     83 % 0 in
22:36 72.7 °F 67.6 °F 30 in ESE 0.2 mph 1.6 mph 84 % 0 in
22:42 72.5 °F 67.5 °F 30 in ESE 0.2 mph 1.6 mph 84 % 0 in
22:47 72.3 °F 67.3 °F 30 in Calm     84 % 0 in
22:52 72.1 °F 67.5 °F 30 in Calm     85 % 0 in
22:57 72.1 °F 67.5 °F 30 in Calm     85 % 0 in
23:02 72 °F 67.3 °F 30 in Calm     85 % 0 in
23:07 72 °F 67.5 °F 30 in Calm     86 % 0 in
23:12 71.8 °F 67.5 °F 30 in Calm     86 % 0 in
23:17 71.6 °F 67.3 °F 30 in Calm     86 % 0 in
23:22 71.6 °F 67.3 °F 30 in Calm     86 % 0 in
23:27 71.4 °F 67.3 °F 30 in Calm     87 % 0 in
23:32 71.4 °F 67.3 °F 30 in Calm     87 % 0 in
23:37 71.2 °F 67.3 °F 30 in Calm     87 % 0 in
23:42 71.2 °F 67.5 °F 30 in Calm     88 % 0 in
23:47 71.1 °F 67.3 °F 30 in Calm     88 % 0 in
23:52 70.9 °F 67.1 °F 30 in Calm     88 % 0 in
23:57 70.9 °F 67.1 °F 30 in Calm     88 % 0 in
Vremenska postaja Senovo
Podatki zbrani iz Weather Underground - 3 mb

Script developed by  Jim McMurry - jmcmurry@mwt.net Adapted for the template by  Wim van der Kuil - Leuven-Template.eu

Vremenski podatki so objavljeni na:

WeatherCloud

Weather Underground

AWEKAS

HAMweather, WeatherForYou, PWS Weather

MapView

Geostik

Slovenia weather network

Oprema, ki se uporablja:

Vremenski program
Cumulus

Cumulus